Time;durP1;ratioP1;P1;durP2;ratioP2;P2;SDS_P1;SDS_P2;PMS_P1;PMS_P2;Temp;Humidity;BMP_temperature;BMP_pressure;BME280_temperature;BME280_humidity;BME280_pressure;Samples;Min_cycle;Max_cycle;Signal;HPM_P1;HPM_P2
2023/11/19 00:01:32;;;;;;;3.30;0.93;;;17.20;66.60;;;;;;5123483;27;20585;-61
2023/11/19 00:04:00;;;;;;;2.10;1.20;;;17.20;66.60;;;;;;5114044;28;20181;-60
2023/11/19 00:06:26;;;;;;;2.50;1.30;;;17.20;66.70;;;;;;5113906;27;20530;-61
2023/11/19 00:08:52;;;;;;;2.75;1.15;;;17.20;66.70;;;;;;5113318;28;20252;-61
2023/11/19 00:11:17;;;;;;;1.58;1.20;;;17.20;66.70;;;;;;5120620;27;20696;-61
2023/11/19 00:13:43;;;;;;;3.67;1.50;;;17.20;66.80;;;;;;5126189;27;20222;-62
2023/11/19 00:16:09;;;;;;;2.53;1.13;;;17.20;66.80;;;;;;5122703;27;20173;-62
2023/11/19 00:18:36;;;;;;;2.13;1.20;;;17.20;66.90;;;;;;5116484;27;20181;-61
2023/11/19 00:21:02;;;;;;;1.50;1.25;;;17.10;66.90;;;;;;5117692;27;20252;-61
2023/11/19 00:23:27;;;;;;;2.88;1.40;;;17.10;66.90;;;;;;5133178;27;20742;-61
2023/11/19 00:25:53;;;;;;;1.65;0.98;;;17.10;66.90;;;;;;5133661;27;20647;-61
2023/11/19 00:28:19;;;;;;;1.15;1.05;;;17.10;67.00;;;;;;5119568;27;20185;-61
2023/11/19 00:30:44;;;;;;;1.55;1.17;;;17.10;67.00;;;;;;5115062;27;20180;-61
2023/11/19 00:33:10;;;;;;;1.00;0.90;;;17.10;67.10;;;;;;5133801;27;20203;-61
2023/11/19 00:35:35;;;;;;;2.10;1.10;;;17.00;67.00;;;;;;5116140;27;20260;-60
2023/11/19 00:38:02;;;;;;;1.45;1.05;;;17.10;67.10;;;;;;5132948;27;20165;-61
2023/11/19 00:40:28;;;;;;;1.80;1.20;;;17.00;67.10;;;;;;5133985;27;20588;-60
2023/11/19 00:42:54;;;;;;;2.17;1.17;;;17.00;67.10;;;;;;5114093;27;20212;-61
2023/11/19 00:45:19;;;;;;;1.55;1.00;;;17.00;67.10;;;;;;5128907;27;20215;-61
2023/11/19 00:47:45;;;;;;;1.38;1.25;;;17.00;67.10;;;;;;5120565;27;20214;-61
2023/11/19 00:50:11;;;;;;;2.25;1.30;;;17.00;67.20;;;;;;5116535;27;20259;-61
2023/11/19 00:52:37;;;;;;;2.08;1.20;;;17.00;67.20;;;;;;5129644;27;20188;-61
2023/11/19 00:55:04;;;;;;;1.40;1.30;;;17.00;67.30;;;;;;5127421;27;20216;-61
2023/11/19 00:57:30;;;;;;;3.08;1.15;;;17.00;67.30;;;;;;5122236;27;20184;-62
2023/11/19 00:59:55;;;;;;;1.15;1.00;;;17.00;67.30;;;;;;5132921;27;20169;-62
2023/11/19 01:02:21;;;;;;;2.47;1.23;;;17.00;68.10;;;;;;5129724;27;20172;-61
2023/11/19 01:04:46;;;;;;;1.65;1.00;;;16.90;67.40;;;;;;5114153;27;20184;-60
2023/11/19 01:07:16;;;;;;;2.08;1.42;;;16.90;67.40;;;;;;5129825;27;20169;-61
2023/11/19 01:09:42;;;;;;;1.33;1.13;;;16.90;67.40;;;;;;5133606;27;20169;-61
2023/11/19 01:12:08;;;;;;;2.95;1.25;;;16.90;67.40;;;;;;5122593;27;20191;-62
2023/11/19 01:14:34;;;;;;;2.80;1.42;;;16.90;67.40;;;;;;5130529;27;20678;-60
2023/11/19 01:17:00;;;;;;;2.08;1.77;;;16.90;67.50;;;;;;5116965;27;20188;-61
2023/11/19 01:19:26;;;;;;;1.80;1.20;;;16.90;67.50;;;;;;5097285;27;20581;-61
2023/11/19 01:21:51;;;;;;;2.90;1.42;;;16.90;67.50;;;;;;5133299;27;20671;-61
2023/11/19 01:24:17;;;;;;;2.03;1.20;;;16.90;67.50;;;;;;5128559;27;20927;-61
2023/11/19 01:26:45;;;;;;;2.63;1.30;;;16.90;67.60;;;;;;5123514;27;20179;-62
2023/11/19 01:29:13;;;;;;;2.30;1.30;;;16.90;67.60;;;;;;5118973;27;20188;-61
2023/11/19 01:31:40;;;;;;;1.90;1.48;;;16.90;67.60;;;;;;5107149;28;20204;-61
2023/11/19 01:34:05;;;;;;;3.50;1.20;;;16.90;67.60;;;;;;5124445;27;20205;-61
2023/11/19 01:36:31;;;;;;;2.05;1.33;;;16.80;67.50;;;;;;5122511;27;20631;-61
2023/11/19 01:38:56;;;;;;;1.23;0.93;;;16.80;67.60;;;;;;5126582;28;20173;-61
2023/11/19 01:41:22;;;;;;;1.10;1.02;;;16.80;67.60;;;;;;5119439;28;20177;-61
2023/11/19 01:43:47;;;;;;;2.90;1.48;;;16.80;67.70;;;;;;5112153;28;20173;-61
2023/11/19 01:46:13;;;;;;;2.55;1.00;;;16.80;67.70;;;;;;5115226;28;20173;-62
2023/11/19 01:48:45;;;;;;;2.38;1.15;;;16.80;67.70;;;;;;5131118;28;20244;-61
2023/11/19 01:51:12;;;;;;;2.90;1.20;;;16.80;67.70;;;;;;5125371;28;20616;-61
2023/11/19 01:53:38;;;;;;;1.90;1.00;;;16.80;67.80;;;;;;5093862;28;20212;-61
2023/11/19 01:56:04;;;;;;;2.08;0.98;;;16.80;67.80;;;;;;5107919;28;20197;-62
2023/11/19 01:58:30;;;;;;;1.30;1.00;;;16.80;67.80;;;;;;5133117;28;20203;-62
2023/11/19 02:00:56;;;;;;;1.40;1.30;;;16.80;67.80;;;;;;5114230;28;20196;-61
2023/11/19 02:03:22;;;;;;;1.42;1.13;;;16.80;67.80;;;;;;5132452;28;20221;-61
2023/11/19 02:05:48;;;;;;;1.80;1.00;;;16.80;67.80;;;;;;5114531;28;20172;-60
2023/11/19 02:08:14;;;;;;;1.88;1.05;;;16.80;67.80;;;;;;5084739;28;20178;-61
2023/11/19 02:10:39;;;;;;;2.50;1.10;;;16.80;67.80;;;;;;5132125;28;20172;-61
2023/11/19 02:13:06;;;;;;;2.60;1.30;;;16.80;67.90;;;;;;5131522;28;20743;-61
2023/11/19 02:15:32;;;;;;;3.55;1.00;;;16.80;67.90;;;;;;5111839;28;20178;-61
2023/11/19 02:18:16;;;;;;;3.63;1.52;;;16.80;67.90;;;;;;5111764;28;20207;-61
2023/11/19 02:20:41;;;;;;;1.63;1.17;;;16.70;67.90;;;;;;5093271;28;20269;-60
2023/11/19 02:23:07;;;;;;;2.22;1.42;;;16.70;67.90;;;;;;5110307;28;20627;-61
2023/11/19 02:25:33;;;;;;;2.08;1.45;;;16.70;67.90;;;;;;5111380;28;20173;-61
2023/11/19 02:27:59;;;;;;;2.33;1.50;;;16.70;68.00;;;;;;5111870;28;20177;-61
2023/11/19 02:30:26;;;;;;;1.65;1.27;;;16.70;68.00;;;;;;5111416;28;20181;-60
2023/11/19 02:32:54;;;;;;;3.13;1.50;;;16.70;68.00;;;;;;5111048;28;20948;-61
2023/11/19 02:35:21;;;;;;;3.05;1.33;;;16.60;68.00;;;;;;5111915;28;20192;-61
2023/11/19 02:37:49;;;;;;;1.77;1.10;;;16.70;68.10;;;;;;5115773;28;20207;-61
2023/11/19 02:40:15;;;;;;;2.25;1.30;;;16.70;68.10;;;;;;5115146;28;20613;-61
2023/11/19 02:42:41;;;;;;;2.08;1.30;;;16.70;68.10;;;;;;5127995;27;20204;-61
2023/11/19 02:45:07;;;;;;;2.67;1.50;;;16.70;68.10;;;;;;5134074;27;20211;-61
2023/11/19 02:47:33;;;;;;;3.65;1.45;;;16.70;68.20;;;;;;5121920;27;20177;-61
2023/11/19 02:49:59;;;;;;;3.03;1.70;;;16.70;68.20;;;;;;5114100;28;20236;-61
2023/11/19 02:52:25;;;;;;;2.20;1.30;;;16.70;68.20;;;;;;5116576;27;20185;-62
2023/11/19 02:54:51;;;;;;;1.30;1.20;;;16.70;68.20;;;;;;5132558;27;20674;-60
2023/11/19 02:57:19;;;;;;;3.75;1.35;;;16.60;68.20;;;;;;5134684;27;20176;-62
2023/11/19 02:59:44;;;;;;;2.47;1.48;;;16.60;68.10;;;;;;5135571;27;20554;-61
2023/11/19 03:02:15;;;;;;;1.73;1.10;;;16.70;68.20;;;;;;5123271;27;20643;-61
2023/11/19 03:04:42;;;;;;;2.72;1.77;;;16.60;68.20;;;;;;5114714;28;20180;-61
2023/11/19 03:07:08;;;;;;;2.88;1.50;;;16.60;68.30;;;;;;5114970;28;20243;-60
2023/11/19 03:09:35;;;;;;;1.75;1.40;;;16.60;68.30;;;;;;5130883;27;20188;-61
2023/11/19 03:12:00;;;;;;;2.50;1.10;;;16.60;68.20;;;;;;5115126;27;20188;-62
2023/11/19 03:14:26;;;;;;;1.92;1.15;;;16.60;68.20;;;;;;5115732;27;20205;-61
2023/11/19 03:16:51;;;;;;;2.35;1.10;;;16.60;68.30;;;;;;5120639;27;20169;-61
2023/11/19 03:19:17;;;;;;;4.45;1.88;;;16.60;68.30;;;;;;5134272;27;20181;-61
2023/11/19 03:21:42;;;;;;;2.88;1.50;;;16.60;68.30;;;;;;5129818;27;20169;-61
2023/11/19 03:24:08;;;;;;;1.95;1.50;;;16.60;68.40;;;;;;5119976;27;20173;-61
2023/11/19 03:26:34;;;;;;;4.57;1.83;;;16.60;68.40;;;;;;5132684;27;20177;-61
2023/11/19 03:29:00;;;;;;;3.15;1.75;;;16.60;68.40;;;;;;5133054;27;20168;-61
2023/11/19 03:31:26;;;;;;;5.68;1.63;;;16.60;68.50;;;;;;5126715;27;20181;-60
2023/11/19 03:33:51;;;;;;;3.83;1.50;;;16.60;68.50;;;;;;5131534;27;20201;-61
2023/11/19 03:36:17;;;;;;;3.10;1.80;;;16.60;68.50;;;;;;5121062;27;21093;-60
2023/11/19 03:38:43;;;;;;;4.20;1.70;;;16.60;68.50;;;;;;5124007;27;20627;-60
2023/11/19 03:41:12;;;;;;;1.85;1.52;;;16.60;68.60;;;;;;5127771;27;20505;-61
2023/11/19 03:43:38;;;;;;;2.97;1.40;;;16.50;68.50;;;;;;5133291;27;20207;-61
2023/11/19 03:46:05;;;;;;;3.28;1.38;;;16.60;68.60;;;;;;5116857;27;20635;-61
2023/11/19 03:48:30;;;;;;;3.35;1.60;;;16.60;68.60;;;;;;5135105;27;20229;-61
2023/11/19 03:50:56;;;;;;;3.30;1.77;;;16.50;68.60;;;;;;5128244;27;20590;-63
2023/11/19 03:53:22;;;;;;;4.20;1.60;;;16.50;68.60;;;;;;5127253;27;20192;-62
2023/11/19 03:55:47;;;;;;;4.10;1.70;;;16.50;68.60;;;;;;5134504;27;20180;-61
2023/11/19 03:58:12;;;;;;;4.18;1.58;;;16.50;68.60;;;;;;5113878;28;20173;-62
2023/11/19 04:00:38;;;;;;;5.63;1.92;;;16.50;68.70;;;;;;5113017;28;20173;-61
2023/11/19 04:03:04;;;;;;;4.22;1.95;;;16.50;68.70;;;;;;5113609;28;20173;-61
2023/11/19 04:05:30;;;;;;;4.57;1.98;;;16.50;68.70;;;;;;5114076;28;20177;-61
2023/11/19 04:07:55;;;;;;;2.85;1.65;;;16.50;68.70;;;;;;5113554;28;20176;-61
2023/11/19 04:10:22;;;;;;;3.80;1.40;;;16.50;68.70;;;;;;5134424;27;20177;-61
2023/11/19 04:12:47;;;;;;;5.45;2.42;;;16.50;68.80;;;;;;5134528;27;20233;-61
2023/11/19 04:15:14;;;;;;;4.28;1.77;;;16.40;68.70;;;;;;5133599;27;20212;-61
2023/11/19 04:17:39;;;;;;;5.78;2.00;;;16.50;68.70;;;;;;5134782;27;20230;-61
2023/11/19 04:20:06;;;;;;;7.72;2.25;;;16.50;68.80;;;;;;5134477;27;20268;-61
2023/11/19 04:22:31;;;;;;;3.10;1.80;;;16.50;68.80;;;;;;5133746;27;20184;-61
2023/11/19 04:24:57;;;;;;;4.93;1.85;;;16.40;68.70;;;;;;5133907;27;20192;-60
2023/11/19 04:27:22;;;;;;;3.47;1.70;;;16.40;69.60;;;;;;5132521;27;20584;-61
2023/11/19 04:29:50;;;;;;;3.83;1.73;;;16.40;68.70;;;;;;5113136;27;20208;-61
2023/11/19 04:32:16;;;;;;;5.22;1.85;;;16.40;68.70;;;;;;5129688;27;20172;-61
2023/11/19 04:34:41;;;;;;;6.18;1.85;;;16.40;68.80;;;;;;5113281;28;20315;-60
2023/11/19 04:37:07;;;;;;;4.25;1.90;;;16.40;68.80;;;;;;5112512;28;20279;-61
2023/11/19 04:39:32;;;;;;;8.52;2.17;;;16.40;68.80;;;;;;5113494;28;20189;-61
2023/11/19 04:41:59;;;;;;;5.32;2.10;;;16.40;68.80;;;;;;5111625;28;20169;-61
2023/11/19 04:44:24;;;;;;;6.30;2.00;;;16.40;68.80;;;;;;5116821;27;20662;-61
2023/11/19 04:46:50;;;;;;;4.07;1.70;;;16.40;68.90;;;;;;5123113;27;20256;-61
2023/11/19 04:49:16;;;;;;;6.18;2.03;;;16.40;68.90;;;;;;5128806;27;20327;-61
2023/11/19 04:51:43;;;;;;;3.90;1.95;;;16.40;68.90;;;;;;5113072;28;20627;-61
2023/11/19 04:54:09;;;;;;;4.38;1.98;;;16.40;68.90;;;;;;5116117;27;20316;-62
2023/11/19 04:56:37;;;;;;;3.78;1.67;;;16.40;68.90;;;;;;5127490;27;20268;-62
2023/11/19 04:59:02;;;;;;;4.70;2.08;;;16.40;69.00;;;;;;5115964;27;20652;-62
2023/11/19 05:01:28;;;;;;;4.90;2.15;;;16.40;68.90;;;;;;5125053;27;20257;-62
2023/11/19 05:03:53;;;;;;;6.57;1.98;;;16.40;69.90;;;;;;5119855;27;20179;-61
2023/11/19 05:06:19;;;;;;;6.85;2.22;;;16.30;68.90;;;;;;5129377;27;20215;-61
2023/11/19 05:08:45;;;;;;;6.03;1.95;;;16.40;69.00;;;;;;5127131;27;20267;-60
2023/11/19 05:11:12;;;;;;;4.70;2.00;;;16.30;68.90;;;;;;5128213;27;20210;-61
2023/11/19 05:13:38;;;;;;;6.10;2.22;;;16.30;69.90;;;;;;5115745;27;20205;-61
2023/11/19 05:16:04;;;;;;;5.13;2.35;;;16.40;69.20;;;;;;5127739;27;20240;-61
2023/11/19 05:18:29;;;;;;;5.82;1.65;;;16.30;68.90;;;;;;5130033;27;20264;-61
2023/11/19 05:20:55;;;;;;;7.88;2.67;;;16.30;69.00;;;;;;5112593;28;20181;-60
2023/11/19 05:23:21;;;;;;;4.85;2.00;;;16.30;68.90;;;;;;5128023;27;20233;-61
2023/11/19 05:25:47;;;;;;;7.50;2.30;;;16.30;69.10;;;;;;5132067;27;20173;-60
2023/11/19 05:28:14;;;;;;;5.65;2.45;;;16.30;69.00;;;;;;5119548;27;20181;-61
2023/11/19 05:30:40;;;;;;;5.57;2.08;;;16.30;69.10;;;;;;5125807;27;20577;-60
2023/11/19 05:33:06;;;;;;;5.78;2.15;;;16.30;69.00;;;;;;5128517;27;20255;-61
2023/11/19 05:35:32;;;;;;;6.53;2.20;;;16.30;69.10;;;;;;5127604;27;20226;-61
2023/11/19 05:37:58;;;;;;;5.72;2.38;;;16.30;69.10;;;;;;5125815;27;20172;-60
2023/11/19 05:40:23;;;;;;;5.35;2.50;;;16.30;69.10;;;;;;5113405;27;20251;-60
2023/11/19 05:42:49;;;;;;;6.72;2.30;;;16.30;69.30;;;;;;5113842;28;20275;-61
2023/11/19 05:45:14;;;;;;;5.65;2.53;;;16.30;69.10;;;;;;5117686;28;20272;-60
2023/11/19 05:47:40;;;;;;;5.15;2.05;;;16.30;69.10;;;;;;5113360;28;20256;-60
2023/11/19 05:50:06;;;;;;;4.35;2.30;;;16.20;69.10;;;;;;5123309;28;20220;-60
2023/11/19 05:52:33;;;;;;;6.40;2.55;;;16.20;69.20;;;;;;5111823;28;20683;-61
2023/11/19 05:55:03;;;;;;;7.75;2.90;;;16.30;69.20;;;;;;5124892;28;20204;-61
2023/11/19 05:57:29;;;;;;;3.50;1.85;;;16.30;69.30;;;;;;5133041;28;20189;-61
2023/11/19 05:59:54;;;;;;;4.88;2.20;;;16.30;69.40;;;;;;5131630;28;20200;-61
2023/11/19 06:02:20;;;;;;;7.63;2.88;;;16.20;69.20;;;;;;5132277;28;20647;-61
2023/11/19 06:04:47;;;;;;;6.28;2.25;;;16.20;69.30;;;;;;5131118;28;20176;-60
2023/11/19 06:07:15;;;;;;;8.60;2.63;;;16.20;69.30;;;;;;5118602;28;20238;-60
2023/11/19 06:09:40;;;;;;;3.78;2.08;;;16.20;69.10;;;;;;5112198;28;20178;-60
2023/11/19 06:12:07;;;;;;;6.55;2.72;;;16.20;69.20;;;;;;5115960;28;20214;-62
2023/11/19 06:14:32;;;;;;;9.23;3.25;;;16.20;69.20;;;;;;5115369;28;20239;-61
2023/11/19 06:16:58;;;;;;;6.68;2.28;;;16.20;69.20;;;;;;5116114;28;20200;-61
2023/11/19 06:19:24;;;;;;;7.68;2.50;;;16.20;69.70;;;;;;5116098;28;20184;-60
2023/11/19 06:21:53;;;;;;;5.28;2.25;;;16.20;69.30;;;;;;5119209;27;20178;-61
2023/11/19 06:24:19;;;;;;;5.68;2.53;;;16.20;69.40;;;;;;5118359;27;20639;-61
2023/11/19 06:26:50;;;;;;;6.05;2.45;;;16.20;69.20;;;;;;5134840;27;20220;-60
2023/11/19 06:29:19;;;;;;;9.93;2.75;;;16.30;69.40;;;;;;5123397;27;20188;-60
2023/11/19 06:31:45;;;;;;;10.82;2.78;;;16.20;69.50;;;;;;5130878;27;20180;-61
2023/11/19 06:34:10;;;;;;;6.40;2.38;;;16.20;69.30;;;;;;5123875;27;20235;-60
2023/11/19 06:36:38;;;;;;;5.28;2.45;;;16.20;69.40;;;;;;5119751;27;20574;-61
2023/11/19 06:39:05;;;;;;;8.80;2.90;;;16.20;69.40;;;;;;5134461;27;20184;-60
2023/11/19 06:41:31;;;;;;;7.38;2.85;;;16.20;69.50;;;;;;5116490;27;20261;-61
2023/11/19 06:43:59;;;;;;;8.90;2.53;;;16.20;69.40;;;;;;5116981;27;20670;-61
2023/11/19 06:46:25;;;;;;;6.30;2.78;;;16.20;69.50;;;;;;5130952;27;20182;-60
2023/11/19 06:48:51;;;;;;;5.82;2.83;;;16.10;69.30;;;;;;5114657;28;20224;-61
2023/11/19 06:51:16;;;;;;;5.00;2.00;;;16.10;69.40;;;;;;5128962;27;20199;-61
2023/11/19 06:53:45;;;;;;;6.63;2.80;;;16.20;69.50;;;;;;5126188;27;20249;-61
2023/11/19 06:56:21;;;;;;;7.20;2.92;;;16.10;69.40;;;;;;5119222;27;20709;-62
2023/11/19 06:58:47;;;;;;;7.40;2.50;;;16.20;69.50;;;;;;5119920;27;20185;-61
2023/11/19 07:01:13;;;;;;;7.25;2.20;;;16.10;69.40;;;;;;5118029;27;20256;-62
2023/11/19 07:03:39;;;;;;;7.53;2.85;;;16.10;69.40;;;;;;5134740;27;20596;-60
2023/11/19 07:06:05;;;;;;;7.30;2.45;;;16.10;69.40;;;;;;5134221;27;20678;-61
2023/11/19 07:08:31;;;;;;;8.88;2.85;;;16.10;69.40;;;;;;5115116;28;20200;-62
2023/11/19 07:10:56;;;;;;;8.98;2.20;;;16.10;69.40;;;;;;5120851;27;20643;-61
2023/11/19 07:13:22;;;;;;;7.25;2.90;;;16.10;69.40;;;;;;5116367;27;20236;-61
2023/11/19 07:15:48;;;;;;;7.15;3.20;;;16.10;69.50;;;;;;5116187;27;20272;-61
2023/11/19 07:18:14;;;;;;;9.27;2.75;;;16.10;69.40;;;;;;5132961;27;20275;-61
2023/11/19 07:20:39;;;;;;;6.30;2.50;;;16.10;69.50;;;;;;5118706;27;20177;-60
2023/11/19 07:23:06;;;;;;;9.32;2.95;;;16.10;69.70;;;;;;5114546;28;20177;-60
2023/11/19 07:25:31;;;;;;;7.85;3.17;;;16.10;69.40;;;;;;5115305;27;20247;-61
2023/11/19 07:27:57;;;;;;;8.93;2.50;;;16.10;69.40;;;;;;5121655;27;20260;-61
2023/11/19 07:30:22;;;;;;;6.45;2.97;;;16.10;69.50;;;;;;5114679;28;20252;-60
2023/11/19 07:32:48;;;;;;;8.40;2.78;;;16.10;69.90;;;;;;5132561;27;20172;-61
2023/11/19 07:35:15;;;;;;;7.20;2.67;;;16.10;69.40;;;;;;5133378;27;20227;-60
2023/11/19 07:37:42;;;;;;;6.65;2.67;;;16.00;69.70;;;;;;5133484;27;20183;-61
2023/11/19 07:40:08;;;;;;;9.05;2.85;;;16.10;69.70;;;;;;5131239;27;20685;-60
2023/11/19 07:42:33;;;;;;;9.27;2.55;;;16.10;70.00;;;;;;5135200;27;20168;-61
2023/11/19 07:44:59;;;;;;;6.22;2.58;;;16.10;69.70;;;;;;5133361;27;20512;-60
2023/11/19 07:47:24;;;;;;;5.95;2.75;;;16.10;70.00;;;;;;5122401;27;20190;-60
2023/11/19 07:49:53;;;;;;;8.82;3.05;;;16.10;70.70;;;;;;5134918;27;20313;-61
2023/11/19 07:52:18;;;;;;;8.68;3.05;;;16.10;69.90;;;;;;5122504;27;20180;-60
2023/11/19 07:54:44;;;;;;;7.90;2.35;;;16.00;70.00;;;;;;5114262;28;20213;-61
2023/11/19 07:57:10;;;;;;;8.25;2.78;;;16.10;69.80;;;;;;5113989;28;20176;-62
2023/11/19 07:59:36;;;;;;;8.68;3.10;;;16.00;70.00;;;;;;5113905;28;20169;-61
2023/11/19 08:02:02;;;;;;;11.15;3.33;;;16.00;69.60;;;;;;5114049;28;20210;-62
2023/11/19 08:04:27;;;;;;;9.32;2.95;;;16.00;69.80;;;;;;5125585;27;20173;-61
2023/11/19 08:06:53;;;;;;;12.88;3.70;;;16.00;69.70;;;;;;5133961;27;20540;-60
2023/11/19 08:09:18;;;;;;;6.13;2.53;;;16.00;69.80;;;;;;5134108;27;20642;-61
2023/11/19 08:11:44;;;;;;;12.18;3.58;;;16.00;69.50;;;;;;5134666;27;20237;-61
2023/11/19 08:14:10;;;;;;;6.97;2.53;;;16.00;69.60;;;;;;5133525;27;20203;-62
2023/11/19 08:16:37;;;;;;;11.65;3.40;;;16.10;69.60;;;;;;5134761;27;20563;-61
2023/11/19 08:19:03;;;;;;;8.50;3.28;;;16.10;69.40;;;;;;5134402;27;20176;-61
2023/11/19 08:21:28;;;;;;;11.15;3.55;;;16.10;69.40;;;;;;5133927;27;20238;-61
2023/11/19 08:23:54;;;;;;;8.50;2.78;;;16.10;69.30;;;;;;5134512;27;20217;-61
2023/11/19 08:26:19;;;;;;;9.75;2.55;;;16.10;69.10;;;;;;5132462;27;20195;-62
2023/11/19 08:28:45;;;;;;;7.68;3.25;;;16.10;69.10;;;;;;5113065;28;20322;-61
2023/11/19 08:31:10;;;;;;;7.25;2.78;;;16.10;69.10;;;;;;5113074;28;20741;-61
2023/11/19 08:33:36;;;;;;;9.35;3.20;;;16.10;69.10;;;;;;5122662;27;20219;-60
2023/11/19 08:36:03;;;;;;;11.48;2.83;;;16.10;69.20;;;;;;5119509;27;20546;-61
2023/11/19 08:38:31;;;;;;;9.13;3.38;;;16.10;69.20;;;;;;5130106;27;20188;-60
2023/11/19 08:41:00;;;;;;;8.55;3.10;;;16.10;69.20;;;;;;5113491;28;20173;-61
2023/11/19 08:43:26;;;;;;;7.65;3.42;;;16.10;69.20;;;;;;5114220;27;20643;-61
2023/11/19 08:45:52;;;;;;;10.32;3.22;;;16.10;69.20;;;;;;5125062;27;20223;-61
2023/11/19 08:48:17;;;;;;;9.07;2.70;;;16.10;69.40;;;;;;5118962;27;20185;-60
2023/11/19 08:50:43;;;;;;;8.32;2.85;;;16.10;69.30;;;;;;5116290;27;20226;-61
2023/11/19 08:53:08;;;;;;;8.82;3.03;;;16.10;69.40;;;;;;5120298;27;20583;-61
2023/11/19 08:55:34;;;;;;;9.80;3.22;;;16.10;69.30;;;;;;5112557;28;20184;-62
2023/11/19 08:58:00;;;;;;;10.57;3.63;;;16.10;69.40;;;;;;5129609;27;20177;-61
2023/11/19 09:00:26;;;;;;;8.15;3.08;;;16.10;69.20;;;;;;5113053;28;20643;-59
2023/11/19 09:02:51;;;;;;;10.32;3.47;;;16.10;69.30;;;;;;5122166;27;20180;-60
2023/11/19 09:05:17;;;;;;;7.78;3.25;;;16.00;69.30;;;;;;5132954;27;20168;-60
2023/11/19 09:07:43;;;;;;;8.57;3.40;;;16.10;69.40;;;;;;5132910;27;20176;-60
2023/11/19 09:10:08;;;;;;;8.25;2.72;;;16.10;69.60;;;;;;5127622;27;20173;-62
2023/11/19 09:12:35;;;;;;;6.18;2.95;;;16.10;69.40;;;;;;5131389;27;20176;-60
2023/11/19 09:15:00;;;;;;;11.48;3.00;;;16.00;69.40;;;;;;5113255;28;20735;-60
2023/11/19 09:17:26;;;;;;;10.27;3.08;;;16.00;69.80;;;;;;5112412;28;20311;-60
2023/11/19 09:19:51;;;;;;;7.63;3.10;;;16.00;70.30;;;;;;5130872;27;20181;-60
2023/11/19 09:22:17;;;;;;;9.43;2.85;;;16.10;69.40;;;;;;5121817;27;20601;-61
2023/11/19 09:24:44;;;;;;;6.93;2.85;;;16.00;70.10;;;;;;5126530;27;20232;-60
2023/11/19 09:27:09;;;;;;;11.93;3.80;;;16.00;70.60;;;;;;5118671;27;20177;-61
2023/11/19 09:29:35;;;;;;;9.70;3.22;;;16.00;70.60;;;;;;5113780;27;20697;-60
2023/11/19 09:32:01;;;;;;;10.02;3.08;;;16.00;71.20;;;;;;5127402;27;20217;-62
2023/11/19 09:34:26;;;;;;;10.27;3.08;;;16.00;70.70;;;;;;5122247;27;20216;-60
2023/11/19 09:36:52;;;;;;;8.77;3.10;;;16.00;71.10;;;;;;5117008;27;20174;-61
2023/11/19 09:39:17;;;;;;;9.18;3.35;;;16.00;70.70;;;;;;5121086;27;20184;-61
2023/11/19 09:41:45;;;;;;;9.73;3.30;;;16.00;70.40;;;;;;5127841;27;20631;-61
2023/11/19 09:44:11;;;;;;;9.68;3.00;;;16.00;70.80;;;;;;5130587;27;20549;-61
2023/11/19 09:46:37;;;;;;;8.50;3.00;;;16.00;70.20;;;;;;5114076;28;20168;-61
2023/11/19 09:49:04;;;;;;;7.78;3.05;;;16.00;70.40;;;;;;5125722;28;20695;-60
2023/11/19 09:51:29;;;;;;;8.65;3.03;;;16.00;70.30;;;;;;5093755;28;20172;-61
2023/11/19 09:53:55;;;;;;;11.73;3.35;;;16.10;69.80;;;;;;5113416;28;20667;-62
2023/11/19 09:56:20;;;;;;;9.50;3.20;;;16.10;69.90;;;;;;5123700;28;20177;-61
2023/11/19 09:58:46;;;;;;;9.82;2.92;;;16.10;69.60;;;;;;5093510;28;20181;-62
2023/11/19 10:01:12;;;;;;;9.20;3.22;;;16.10;69.50;;;;;;5109839;28;20176;-61
2023/11/19 10:03:39;;;;;;;9.85;2.90;;;16.10;70.40;;;;;;5127455;28;20180;-62
2023/11/19 10:06:06;;;;;;;9.43;3.35;;;16.10;69.60;;;;;;5093311;28;20641;-62
2023/11/19 10:08:32;;;;;;;9.43;3.10;;;16.10;69.50;;;;;;5115818;28;20813;-62
2023/11/19 10:10:59;;;;;;;10.18;3.35;;;16.10;69.60;;;;;;5127845;28;20192;-62
2023/11/19 10:13:28;;;;;;;8.80;3.05;;;16.10;69.40;;;;;;5112055;28;20173;-61
2023/11/19 10:15:55;;;;;;;9.13;4.10;;;16.10;69.40;;;;;;5117495;28;20169;-62
2023/11/19 10:18:25;;;;;;;8.20;3.42;;;16.10;69.40;;;;;;5114345;28;20168;-61
2023/11/19 10:20:51;;;;;;;9.38;3.25;;;16.10;70.40;;;;;;5132122;28;20654;-61
2023/11/19 10:23:16;;;;;;;7.45;3.10;;;16.10;69.60;;;;;;5094711;28;20181;-61
2023/11/19 10:25:42;;;;;;;8.65;3.10;;;16.10;69.40;;;;;;5113105;28;20177;-62
2023/11/19 10:28:07;;;;;;;10.15;3.13;;;16.10;69.50;;;;;;5121901;28;20467;-63
2023/11/19 10:30:34;;;;;;;11.45;3.58;;;16.10;69.40;;;;;;5127132;28;20183;-60
2023/11/19 10:33:02;;;;;;;9.73;3.63;;;16.10;69.40;;;;;;5131046;28;20203;-60
2023/11/19 10:35:28;;;;;;;13.52;3.65;;;16.10;69.40;;;;;;5115964;28;20307;-60
2023/11/19 10:37:54;;;;;;;7.78;2.72;;;16.10;69.40;;;;;;5111819;28;20260;-62
2023/11/19 10:40:20;;;;;;;7.82;3.50;;;16.10;69.40;;;;;;5124547;28;20318;-61
2023/11/19 10:42:45;;;;;;;12.15;3.13;;;16.10;69.40;;;;;;5101299;28;20174;-61
2023/11/19 10:45:23;;;;;;;7.25;3.35;;;16.10;69.50;;;;;;5121663;28;20173;-61
2023/11/19 10:47:51;;;;;;;9.90;3.13;;;16.10;69.40;;;;;;5127435;28;20608;-62
2023/11/19 10:50:16;;;;;;;10.90;3.35;;;16.10;69.40;;;;;;5096990;28;20223;-62
2023/11/19 10:52:42;;;;;;;6.57;2.80;;;16.10;69.60;;;;;;5115379;28;20528;-62
2023/11/19 10:55:08;;;;;;;9.07;3.47;;;16.10;69.70;;;;;;5092656;28;20696;-62
2023/11/19 10:57:34;;;;;;;10.70;3.17;;;16.10;69.40;;;;;;5111524;27;20619;-62
2023/11/19 11:00:01;;;;;;;8.30;3.28;;;16.10;69.40;;;;;;5088393;28;20184;-62
2023/11/19 11:02:27;;;;;;;6.53;2.80;;;16.10;69.40;;;;;;5112125;27;20192;-61
2023/11/19 11:04:52;;;;;;;7.65;2.85;;;16.10;69.30;;;;;;5116059;27;20184;-59
2023/11/19 11:07:19;;;;;;;8.68;3.28;;;16.10;69.30;;;;;;5114845;27;20189;-61
2023/11/19 11:09:46;;;;;;;7.75;2.53;;;16.10;69.20;;;;;;5096549;28;20177;-61
2023/11/19 11:12:11;;;;;;;10.30;3.40;;;16.10;69.40;;;;;;5104568;27;20227;-62
2023/11/19 11:14:38;;;;;;;9.32;2.95;;;16.10;69.40;;;;;;5099936;27;20686;-61
2023/11/19 11:17:03;;;;;;;9.93;3.40;;;16.10;69.40;;;;;;5130284;27;20252;-61
2023/11/19 11:19:29;;;;;;;10.32;3.47;;;16.10;69.40;;;;;;5096997;28;20734;-61
2023/11/19 11:21:54;;;;;;;10.60;3.10;;;16.10;69.40;;;;;;5124442;27;20176;-61
2023/11/19 11:24:31;;;;;;;11.73;3.38;;;16.10;69.40;;;;;;5085855;28;20230;-61
2023/11/19 11:27:33;;;;;;;8.45;3.50;;;16.20;69.40;;;;;;5092980;27;20172;-60
2023/11/19 11:30:20;;;;;;;7.70;3.08;;;16.20;69.30;;;;;;5113872;28;20643;-61
2023/11/19 11:33:13;;;;;;;9.65;3.08;;;16.20;69.40;;;;;;5114458;27;20168;-60
2023/11/19 11:35:43;;;;;;;10.07;3.20;;;16.10;69.30;;;;;;5119183;27;20630;-60
2023/11/19 11:38:09;;;;;;;12.82;4.03;;;16.10;69.70;;;;;;5134253;27;20184;-62
2023/11/19 11:40:34;;;;;;;9.05;2.88;;;16.10;69.80;;;;;;5128612;27;20169;-60
2023/11/19 11:43:00;;;;;;;11.45;3.80;;;16.10;69.80;;;;;;5130562;27;20623;-68
2023/11/19 11:45:42;;;;;;;13.88;3.00;;;16.20;69.90;;;;;;5134210;27;20175;-70
2023/11/19 11:48:12;;;;;;;14.05;3.70;;;16.20;69.70;;;;;;5123501;27;20235;-67
2023/11/19 11:50:56;;;;;;;13.68;3.20;;;16.30;69.90;;;;;;5123309;27;20290;-68
2023/11/19 11:53:24;;;;;;;10.60;4.13;;;16.30;69.60;;;;;;5114552;27;20215;-68
2023/11/19 11:55:49;;;;;;;11.27;3.83;;;16.30;69.90;;;;;;5125672;27;20161;-68
2023/11/19 11:58:18;;;;;;;18.02;3.83;;;16.30;69.90;;;;;;5118389;27;20185;-72
2023/11/19 12:00:44;;;;;;;12.25;4.05;;;16.30;70.30;;;;;;5117733;27;20550;-68
2023/11/19 12:03:11;;;;;;;15.73;4.13;;;16.40;70.40;;;;;;5104455;27;20180;-69
2023/11/19 12:05:43;;;;;;;10.68;3.25;;;16.50;70.60;;;;;;5095792;27;20540;-67
2023/11/19 12:08:11;;;;;;;9.90;3.97;;;16.50;70.50;;;;;;5118733;27;20172;-68
2023/11/19 12:10:43;;;;;;;10.82;3.75;;;16.50;70.70;;;;;;5116810;27;20172;-68
2023/11/19 12:13:08;;;;;;;14.80;4.57;;;16.50;70.90;;;;;;5133464;27;20180;-68
2023/11/19 12:15:34;;;;;;;10.32;3.63;;;16.50;71.10;;;;;;5116131;27;20208;-68
2023/11/19 12:17:59;;;;;;;7.40;3.28;;;16.50;71.10;;;;;;5098140;27;20641;-67
2023/11/19 12:20:25;;;;;;;11.85;4.00;;;16.60;71.10;;;;;;5133696;27;20575;-66
2023/11/19 12:22:51;;;;;;;11.73;4.10;;;16.60;70.90;;;;;;5131843;27;20184;-68
2023/11/19 12:25:17;;;;;;;11.05;3.90;;;16.60;71.00;;;;;;5134027;27;20176;-68
2023/11/19 12:27:47;;;;;;;9.55;3.78;;;16.60;71.10;;;;;;5133473;27;20197;-69
2023/11/19 12:30:12;;;;;;;12.07;3.67;;;16.60;71.20;;;;;;5121070;27;20196;-67
2023/11/19 12:32:41;;;;;;;12.38;3.78;;;16.60;71.30;;;;;;5113064;27;20169;-67
2023/11/19 12:35:11;;;;;;;10.93;3.60;;;16.60;71.40;;;;;;5112070;28;20200;-69
2023/11/19 12:37:49;;;;;;;11.50;3.63;;;16.60;71.30;;;;;;5113040;28;20290;-68
2023/11/19 12:40:17;;;;;;;10.65;3.60;;;16.60;72.20;;;;;;5111971;27;20181;-69
2023/11/19 12:42:43;;;;;;;13.73;3.72;;;16.60;71.40;;;;;;5113255;27;20165;-69